createdAt,value
2023-05-02T00:00:27.858Z,68.54
2023-05-02T00:02:54.098Z,68.67
2023-05-02T00:05:20.317Z,68.11
2023-05-02T00:07:46.424Z,68.10
2023-05-02T00:10:12.538Z,67.91
2023-05-02T00:12:38.635Z,67.59
2023-05-02T00:15:04.713Z,68.05
2023-05-02T00:17:30.901Z,67.29
2023-05-02T00:19:57.323Z,67.28
2023-05-02T00:22:23.675Z,67.49
2023-05-02T00:24:49.844Z,67.06
2023-05-02T00:27:15.956Z,66.96
2023-05-02T00:29:42.096Z,66.99
2023-05-02T00:32:08.241Z,66.56
2023-05-02T00:34:34.354Z,66.88
2023-05-02T00:37:00.447Z,66.80
2023-05-02T00:39:26.577Z,67.57
2023-05-02T00:41:52.711Z,67.60
2023-05-02T00:44:18.828Z,66.94
2023-05-02T00:46:45.049Z,67.02
2023-05-02T00:49:11.242Z,66.47
2023-05-02T00:51:37.343Z,67.07
2023-05-02T00:54:03.468Z,67.25
2023-05-02T00:56:29.561Z,66.72
2023-05-02T00:58:55.657Z,67.07
2023-05-02T01:01:21.787Z,67.00
2023-05-02T01:03:47.982Z,67.41
2023-05-02T01:06:14.182Z,67.65
2023-05-02T01:08:40.415Z,67.48
2023-05-02T01:11:06.510Z,67.47
2023-05-02T01:13:32.627Z,67.37
2023-05-02T01:15:58.781Z,67.20
2023-05-02T01:18:24.945Z,67.71
2023-05-02T01:20:51.069Z,67.45
2023-05-02T01:23:17.175Z,66.33
2023-05-02T01:25:43.279Z,66.63
2023-05-02T01:28:09.417Z,68.29
2023-05-02T01:30:35.518Z,67.87
2023-05-02T01:33:01.664Z,68.20
2023-05-02T01:35:27.773Z,67.63
2023-05-02T01:37:53.888Z,67.51
2023-05-02T01:40:20.016Z,67.55
2023-05-02T01:42:46.135Z,67.51
2023-05-02T01:45:12.231Z,67.45
2023-05-02T01:47:38.398Z,66.71
2023-05-02T01:50:04.540Z,66.58
2023-05-02T01:52:30.637Z,67.02
2023-05-02T01:54:56.733Z,67.24
2023-05-02T01:57:22.851Z,66.63
2023-05-02T01:59:48.932Z,67.04
2023-05-02T02:02:15.035Z,66.99
2023-05-02T02:04:41.299Z,66.97
2023-05-02T02:07:07.462Z,67.13
2023-05-02T02:09:33.580Z,66.98
2023-05-02T02:11:59.687Z,67.38
2023-05-02T02:14:25.826Z,67.89
2023-05-02T02:16:51.970Z,68.34
2023-05-02T02:19:18.164Z,67.68
2023-05-02T02:21:44.256Z,67.91
2023-05-02T02:24:10.381Z,68.25
2023-05-02T02:26:36.477Z,67.75
2023-05-02T02:29:02.569Z,67.87
2023-05-02T02:31:28.677Z,67.05
2023-05-02T02:33:54.894Z,67.49
2023-05-02T02:36:21.034Z,67.89
2023-05-02T02:38:47.136Z,68.18
2023-05-02T02:41:13.255Z,68.04
2023-05-02T02:43:39.335Z,68.42
2023-05-02T02:46:05.509Z,68.02
2023-05-02T02:48:31.644Z,67.98
2023-05-02T02:50:57.757Z,68.69
2023-05-02T02:53:23.895Z,68.12
2023-05-02T02:55:50.017Z,68.96
2023-05-02T02:58:16.140Z,68.42
2023-05-02T03:00:42.308Z,67.41
2023-05-02T03:03:08.509Z,68.07
2023-05-02T03:05:34.699Z,68.36
2023-05-02T03:08:00.800Z,68.48
2023-05-02T03:10:26.945Z,68.72
2023-05-02T03:12:53.200Z,68.25
2023-05-02T03:15:19.292Z,68.14
2023-05-02T03:17:45.406Z,68.47
2023-05-02T03:20:11.527Z,68.47
2023-05-02T03:22:37.645Z,68.68
2023-05-02T03:25:03.806Z,68.10
2023-05-02T03:27:29.925Z,68.03
2023-05-02T03:29:56.035Z,68.47
2023-05-02T03:32:22.189Z,68.85
2023-05-02T03:34:48.348Z,68.60
2023-05-02T03:37:14.469Z,68.76
2023-05-02T03:39:40.584Z,68.27
2023-05-02T03:42:06.694Z,68.06
2023-05-02T03:44:32.833Z,68.47
2023-05-02T03:46:59.053Z,68.72
2023-05-02T03:49:25.206Z,68.67
2023-05-02T03:51:51.317Z,68.39
2023-05-02T03:54:17.445Z,69.00
2023-05-02T03:56:43.545Z,68.83
2023-05-02T03:59:09.674Z,68.93
2023-05-02T04:01:35.887Z,68.79
2023-05-02T04:04:02.058Z,68.37
2023-05-02T04:06:28.303Z,68.60
2023-05-02T04:08:54.435Z,67.69
2023-05-02T04:11:20.551Z,67.82
2023-05-02T04:13:46.652Z,68.00
2023-05-02T04:16:12.795Z,67.27
2023-05-02T04:18:38.936Z,67.79
2023-05-02T04:21:05.044Z,68.35
2023-05-02T04:23:31.161Z,68.50
2023-05-02T04:25:57.287Z,69.11
2023-05-02T04:28:23.515Z,68.86
2023-05-02T04:30:49.640Z,69.12
2023-05-02T04:33:15.801Z,68.77
2023-05-02T04:35:41.953Z,69.14
2023-05-02T04:38:08.070Z,67.77
2023-05-02T04:40:34.212Z,68.41
2023-05-02T04:43:00.350Z,69.15
2023-05-02T04:45:26.445Z,70.47
2023-05-02T04:47:52.624Z,70.79
2023-05-02T04:50:18.841Z,70.37
2023-05-02T04:52:44.945Z,70.10
2023-05-02T04:55:11.051Z,69.63
2023-05-02T04:57:37.157Z,69.49
2023-05-02T05:00:03.519Z,68.89
2023-05-02T05:02:29.932Z,68.27
2023-05-02T05:04:56.191Z,67.51
2023-05-02T05:07:22.312Z,67.93
2023-05-02T05:09:48.411Z,67.35
2023-05-02T05:12:14.557Z,66.97
2023-05-02T05:14:40.680Z,66.74
2023-05-02T05:17:06.802Z,66.35
2023-05-02T05:19:32.996Z,66.02
2023-05-02T05:21:59.136Z,65.48
2023-05-02T05:24:25.235Z,67.02
2023-05-02T05:26:51.376Z,66.86
2023-05-02T05:29:17.489Z,67.57
2023-05-02T05:31:43.632Z,68.60
2023-05-02T05:34:10.202Z,69.94
2023-05-02T05:36:36.357Z,68.31
2023-05-02T05:39:02.456Z,67.63
2023-05-02T05:41:28.554Z,67.59
2023-05-02T05:43:54.679Z,67.06
2023-05-02T05:46:20.820Z,65.51
2023-05-02T05:48:46.931Z,64.90
2023-05-02T05:51:13.037Z,64.00
2023-05-02T05:53:39.238Z,64.89
2023-05-02T05:56:05.361Z,66.92
2023-05-02T05:58:31.470Z,66.42
2023-05-02T06:00:57.553Z,65.38
2023-05-02T06:03:23.858Z,65.09
2023-05-02T06:05:50.091Z,65.02
2023-05-02T06:08:16.213Z,65.65
2023-05-02T06:10:42.330Z,66.07
2023-05-02T06:13:08.445Z,66.34
2023-05-02T06:15:34.574Z,66.94
2023-05-02T06:18:00.806Z,66.40
2023-05-02T06:20:26.992Z,67.03
2023-05-02T06:22:53.108Z,69.89
2023-05-02T06:25:19.195Z,69.36
2023-05-02T06:27:45.322Z,71.44
2023-05-02T06:30:11.419Z,71.26
2023-05-02T06:32:37.568Z,69.32
2023-05-02T06:35:03.690Z,68.42
2023-05-02T06:37:29.852Z,67.53
2023-05-02T06:39:55.952Z,67.53
2023-05-02T06:42:22.052Z,67.00
2023-05-02T06:44:48.241Z,66.73
2023-05-02T06:47:14.375Z,65.35
2023-05-02T06:49:40.510Z,63.90
2023-05-02T06:52:06.656Z,63.15
2023-05-02T06:54:32.786Z,62.17
2023-05-02T06:56:58.884Z,62.38
2023-05-02T06:59:25.030Z,62.49
2023-05-02T07:01:51.125Z,62.36
2023-05-02T07:04:17.238Z,62.03
2023-05-02T07:06:43.442Z,62.49
2023-05-02T07:09:09.588Z,61.55
2023-05-02T07:11:35.749Z,59.87
2023-05-02T07:14:01.885Z,57.71
2023-05-02T07:16:28.035Z,57.60
2023-05-02T07:18:54.187Z,56.94
2023-05-02T07:21:20.431Z,57.10
2023-05-02T07:23:46.565Z,56.42
2023-05-02T07:26:12.664Z,55.18
2023-05-02T07:28:39.104Z,52.60
2023-05-02T07:31:05.283Z,49.48
2023-05-02T07:33:31.424Z,51.12
2023-05-02T07:35:57.562Z,52.94
2023-05-02T07:38:23.663Z,54.20
2023-05-02T07:40:49.903Z,53.94
2023-05-02T07:43:16.029Z,53.70
2023-05-02T07:45:42.191Z,52.45
2023-05-02T07:48:08.598Z,53.82
2023-05-02T07:50:34.763Z,52.08
2023-05-02T07:53:00.849Z,46.76
2023-05-02T07:55:26.964Z,50.39
2023-05-02T07:57:53.084Z,51.45
2023-05-02T08:00:19.200Z,45.22
2023-05-02T08:02:45.450Z,46.13
2023-05-02T08:05:11.762Z,42.34
2023-05-02T08:07:37.985Z,43.77
2023-05-02T08:10:04.464Z,44.92
2023-05-02T08:12:30.777Z,46.91
2023-05-02T08:14:56.875Z,45.95
2023-05-02T08:17:23.035Z,42.80
2023-05-02T08:19:49.171Z,42.52
2023-05-02T08:22:15.268Z,44.85
2023-05-02T08:24:41.384Z,44.56
2023-05-02T08:27:07.540Z,45.35
2023-05-02T08:29:33.659Z,47.20
2023-05-02T08:31:59.806Z,44.55
2023-05-02T08:34:25.918Z,45.13
2023-05-02T08:36:52.036Z,44.40
2023-05-02T08:39:18.183Z,44.97
2023-05-02T08:41:44.266Z,44.43
2023-05-02T08:44:10.388Z,43.74
2023-05-02T08:46:36.568Z,43.40
2023-05-02T08:49:02.850Z,46.65
2023-05-02T08:51:29.414Z,44.26
2023-05-02T08:53:55.891Z,42.68
2023-05-02T08:56:22.040Z,45.71
2023-05-02T08:58:48.504Z,43.42
2023-05-02T09:01:14.697Z,44.04
2023-05-02T09:03:40.882Z,43.62
2023-05-02T09:06:07.037Z,46.63
2023-05-02T09:08:33.214Z,44.21
2023-05-02T09:10:59.406Z,45.83
2023-05-02T09:13:25.511Z,46.28
2023-05-02T09:15:51.614Z,42.63
2023-05-02T09:18:17.711Z,44.05
2023-05-02T09:20:43.826Z,42.24
2023-05-02T09:23:09.936Z,40.49
2023-05-02T09:25:36.021Z,40.79
2023-05-02T09:28:02.202Z,38.93
2023-05-02T09:30:28.329Z,40.32
2023-05-02T09:32:54.566Z,40.41
2023-05-02T09:35:20.702Z,41.47
2023-05-02T09:37:46.793Z,40.97
2023-05-02T09:40:12.909Z,40.79
2023-05-02T09:42:39.000Z,40.24
2023-05-02T09:45:05.120Z,39.78
2023-05-02T09:47:31.240Z,39.02
2023-05-02T09:49:57.334Z,40.55
2023-05-02T09:52:23.433Z,39.23
2023-05-02T09:54:49.518Z,39.41
2023-05-02T09:57:15.609Z,45.58
2023-05-02T09:59:41.815Z,58.17
2023-05-02T10:02:07.953Z,57.93
2023-05-02T10:04:34.410Z,59.83
2023-05-02T10:07:00.711Z,60.18
2023-05-02T10:09:26.826Z,61.23
2023-05-02T10:11:52.939Z,61.91
2023-05-02T10:14:19.061Z,62.07
2023-05-02T10:16:45.232Z,60.44
2023-05-02T10:19:11.330Z,60.23
2023-05-02T10:21:37.561Z,60.37
2023-05-02T10:24:03.702Z,60.92
2023-05-02T10:26:29.839Z,59.67
2023-05-02T10:28:55.936Z,61.15
2023-05-02T10:31:22.033Z,60.53
2023-05-02T10:33:48.174Z,58.27
2023-05-02T10:36:14.268Z,58.40
2023-05-02T10:38:40.362Z,55.41
2023-05-02T10:41:06.450Z,58.73
2023-05-02T10:43:32.577Z,54.23
2023-05-02T10:45:58.693Z,54.42
2023-05-02T10:48:24.791Z,52.29
2023-05-02T10:50:50.901Z,53.65
2023-05-02T10:53:16.982Z,54.39
2023-05-02T10:55:43.094Z,53.00
2023-05-02T10:58:09.192Z,52.23
2023-05-02T11:00:35.358Z,51.82
2023-05-02T11:03:01.779Z,49.93
2023-05-02T11:05:28.163Z,48.38
2023-05-02T11:07:54.281Z,48.86
2023-05-02T11:10:20.410Z,46.82
2023-05-02T11:12:46.569Z,48.26
2023-05-02T11:15:12.707Z,45.02
2023-05-02T11:17:38.820Z,46.00
2023-05-02T11:20:04.961Z,46.01
2023-05-02T11:22:31.121Z,44.62
2023-05-02T11:24:57.226Z,44.39
2023-05-02T11:27:23.348Z,42.44
2023-05-02T11:29:49.467Z,42.81
2023-05-02T11:32:15.633Z,43.62
2023-05-02T11:34:41.760Z,42.16
2023-05-02T11:37:07.882Z,43.23
2023-05-02T11:39:34.006Z,45.51
2023-05-02T11:42:00.132Z,43.80
2023-05-02T11:44:26.282Z,44.12
2023-05-02T11:46:52.400Z,41.77
2023-05-02T11:49:18.752Z,41.23
2023-05-02T11:51:44.845Z,40.00
2023-05-02T11:54:10.965Z,40.19
2023-05-02T11:56:37.061Z,40.69
2023-05-02T11:59:03.180Z,39.43
2023-05-02T12:01:29.397Z,38.42
2023-05-02T12:03:55.584Z,42.02
2023-05-02T12:06:21.845Z,39.89
2023-05-02T12:08:48.065Z,38.59
2023-05-02T12:11:14.185Z,36.87
2023-05-02T12:13:40.296Z,38.69
2023-05-02T12:16:06.415Z,38.72
2023-05-02T12:18:32.550Z,36.73
2023-05-02T12:20:58.634Z,37.46
2023-05-02T12:23:24.728Z,39.96
2023-05-02T12:25:50.879Z,39.19
2023-05-02T12:28:16.978Z,39.84
2023-05-02T12:30:43.090Z,38.63
2023-05-02T12:33:09.272Z,38.01
2023-05-02T12:35:35.408Z,39.00
2023-05-02T12:38:01.517Z,40.11
2023-05-02T12:40:27.599Z,40.03
2023-05-02T12:42:53.716Z,42.30
2023-05-02T12:45:19.817Z,43.13
2023-05-02T12:47:45.952Z,44.43
2023-05-02T12:50:12.101Z,42.12
2023-05-02T12:52:38.212Z,41.10
2023-05-02T12:55:04.622Z,41.46
2023-05-02T12:57:30.765Z,39.75
2023-05-02T12:59:56.887Z,40.04
2023-05-02T13:02:23.061Z,40.92
2023-05-02T13:04:49.187Z,40.82
2023-05-02T13:07:15.315Z,41.82
2023-05-02T13:09:41.462Z,40.36
2023-05-02T13:12:07.574Z,41.25
2023-05-02T13:14:33.810Z,39.72
2023-05-02T13:17:00.117Z,41.47
2023-05-02T13:19:26.330Z,41.43
2023-05-02T13:21:52.464Z,39.86
2023-05-02T13:24:18.617Z,42.15
2023-05-02T13:26:44.716Z,40.69
2023-05-02T13:29:10.828Z,40.62
2023-05-02T13:31:37.113Z,39.91
2023-05-02T13:34:03.498Z,40.84
2023-05-02T13:36:29.665Z,37.36
2023-05-02T13:38:55.769Z,40.69
2023-05-02T13:41:21.886Z,38.39
2023-05-02T13:43:48.013Z,40.77
2023-05-02T13:46:14.517Z,38.70
2023-05-02T13:48:40.665Z,38.91
2023-05-02T13:51:06.802Z,37.64
2023-05-02T13:53:32.916Z,38.90
2023-05-02T13:55:59.044Z,36.97
2023-05-02T13:58:25.136Z,38.03
2023-05-02T14:00:51.250Z,37.36
2023-05-02T14:03:17.452Z,40.00
2023-05-02T14:05:43.725Z,39.39
2023-05-02T14:08:09.909Z,38.93
2023-05-02T14:10:36.023Z,40.45
2023-05-02T14:13:02.113Z,38.94
2023-05-02T14:15:28.253Z,38.95
2023-05-02T14:17:54.459Z,39.35
2023-05-02T14:20:20.640Z,40.43
2023-05-02T14:22:46.759Z,39.96
2023-05-02T14:25:12.869Z,38.99
2023-05-02T14:27:39.014Z,38.82
2023-05-02T14:30:05.297Z,40.00
2023-05-02T14:32:31.677Z,39.31
2023-05-02T14:34:57.813Z,40.03
2023-05-02T14:37:23.925Z,40.09
2023-05-02T14:39:52.188Z,38.63
2023-05-02T14:42:19.621Z,39.50
2023-05-02T14:44:45.723Z,38.92
2023-05-02T14:47:11.868Z,38.27
2023-05-02T14:49:38.096Z,37.92
2023-05-02T14:52:04.225Z,37.31
2023-05-02T14:54:31.401Z,38.64
2023-05-02T14:56:57.522Z,39.05
2023-05-02T14:59:23.643Z,39.39
2023-05-02T15:01:49.792Z,38.59
2023-05-02T15:04:16.086Z,38.49
2023-05-02T15:06:42.817Z,39.73
2023-05-02T15:09:08.995Z,39.45
2023-05-02T15:11:35.102Z,39.14
2023-05-02T15:14:01.242Z,38.84
2023-05-02T15:16:27.641Z,40.42
2023-05-02T15:18:53.901Z,41.02
2023-05-02T15:21:20.010Z,38.80
2023-05-02T15:23:46.134Z,39.26
2023-05-02T15:26:12.238Z,38.13
2023-05-02T15:28:38.339Z,37.39
2023-05-02T15:31:04.477Z,39.28
2023-05-02T15:33:30.578Z,39.05
2023-05-02T15:35:56.685Z,39.48
2023-05-02T15:38:22.801Z,39.34
2023-05-02T15:40:48.920Z,38.12
2023-05-02T15:43:15.042Z,39.40
2023-05-02T15:45:41.159Z,38.92
2023-05-02T15:48:07.358Z,39.79
2023-05-02T15:50:33.518Z,40.67
2023-05-02T15:52:59.612Z,40.06
2023-05-02T15:55:25.790Z,40.42
2023-05-02T15:57:51.910Z,39.90
2023-05-02T16:00:18.053Z,40.87
2023-05-02T16:02:44.173Z,41.08
2023-05-02T16:05:10.301Z,41.09
2023-05-02T16:07:36.419Z,39.76
2023-05-02T16:10:02.903Z,40.31
2023-05-02T16:12:29.198Z,40.02
2023-05-02T16:14:55.307Z,40.49
2023-05-02T16:17:21.429Z,39.40
2023-05-02T16:19:47.544Z,40.75
2023-05-02T16:22:13.831Z,39.56
2023-05-02T16:24:39.917Z,39.14
2023-05-02T16:27:06.023Z,39.01
2023-05-02T16:29:32.135Z,38.86
2023-05-02T16:31:58.295Z,39.61
2023-05-02T16:34:24.448Z,38.60
2023-05-02T16:36:50.574Z,38.91
2023-05-02T16:39:16.679Z,38.51
2023-05-02T16:41:42.781Z,38.26
2023-05-02T16:44:08.913Z,37.19
2023-05-02T16:46:35.297Z,38.24
2023-05-02T16:49:01.441Z,38.25
2023-05-02T16:51:27.571Z,37.22
2023-05-02T16:53:54.041Z,37.49
2023-05-02T16:56:20.144Z,37.16
2023-05-02T16:58:46.241Z,37.20
2023-05-02T17:01:12.408Z,37.04
2023-05-02T17:03:38.601Z,36.42
2023-05-02T17:06:04.913Z,36.79
2023-05-02T17:08:31.089Z,36.62
2023-05-02T17:10:57.245Z,36.09
2023-05-02T17:13:23.357Z,37.23
2023-05-02T17:15:49.467Z,37.30
2023-05-02T17:18:15.662Z,37.12
2023-05-02T17:20:41.822Z,37.55
2023-05-02T17:23:07.971Z,37.40
2023-05-02T17:25:34.118Z,36.90
2023-05-02T17:28:00.220Z,36.15
2023-05-02T17:30:26.326Z,37.24
2023-05-02T17:32:52.492Z,37.45
2023-05-02T17:35:18.637Z,37.29
2023-05-02T17:37:44.767Z,37.98
2023-05-02T17:40:10.894Z,38.32
2023-05-02T17:42:36.984Z,37.71
2023-05-02T17:45:03.109Z,37.26
2023-05-02T17:47:29.325Z,36.32
2023-05-02T17:49:55.440Z,38.85
2023-05-02T17:52:21.612Z,39.35
2023-05-02T17:54:47.744Z,37.41
2023-05-02T17:57:13.874Z,38.38
2023-05-02T17:59:39.974Z,38.05
2023-05-02T18:02:07.755Z,39.82
2023-05-02T18:04:35.899Z,44.58
2023-05-02T18:07:04.162Z,44.76
2023-05-02T18:09:31.888Z,45.40
2023-05-02T18:11:57.991Z,47.05
2023-05-02T18:14:24.122Z,46.30
2023-05-02T18:16:50.242Z,47.37
2023-05-02T18:19:16.365Z,47.83
2023-05-02T18:21:42.454Z,47.93
2023-05-02T18:24:08.547Z,47.69
2023-05-02T18:26:34.651Z,47.28
2023-05-02T18:29:00.770Z,48.46
2023-05-02T18:31:26.946Z,49.32
2023-05-02T18:33:53.040Z,48.83
2023-05-02T18:36:19.247Z,49.13
2023-05-02T18:38:45.516Z,49.37
2023-05-02T18:41:11.616Z,50.55
2023-05-02T18:43:37.726Z,50.34
2023-05-02T18:46:03.867Z,50.29
2023-05-02T18:48:30.026Z,51.04
2023-05-02T18:50:56.133Z,51.43
2023-05-02T18:53:22.236Z,51.47
2023-05-02T18:55:48.329Z,50.98
2023-05-02T18:58:14.456Z,51.03
2023-05-02T19:00:40.572Z,50.88
2023-05-02T19:03:06.795Z,51.69
2023-05-02T19:05:32.956Z,51.70
2023-05-02T19:07:59.052Z,51.10
2023-05-02T19:10:25.167Z,53.29
2023-05-02T19:12:51.276Z,54.02
2023-05-02T19:15:17.374Z,54.03
2023-05-02T19:17:43.501Z,53.66
2023-05-02T19:20:09.787Z,54.12
2023-05-02T19:22:35.872Z,54.37
2023-05-02T19:25:02.328Z,54.02
2023-05-02T19:27:28.693Z,54.07
2023-05-02T19:29:54.784Z,54.00
2023-05-02T19:32:20.995Z,54.08
2023-05-02T19:34:47.133Z,54.12
2023-05-02T19:37:13.251Z,54.33
2023-05-02T19:39:39.374Z,55.53
2023-05-02T19:42:05.466Z,55.70
2023-05-02T19:44:31.576Z,55.27
2023-05-02T19:46:57.689Z,56.95
2023-05-02T19:49:23.817Z,55.92
2023-05-02T19:51:49.925Z,56.15
2023-05-02T19:54:16.070Z,55.21
2023-05-02T19:56:42.198Z,55.17
2023-05-02T19:59:08.323Z,56.56
2023-05-02T20:01:34.441Z,55.73
2023-05-02T20:04:00.579Z,57.94
2023-05-02T20:06:26.840Z,57.45
2023-05-02T20:08:53.078Z,58.18
2023-05-02T20:11:19.265Z,57.95
2023-05-02T20:13:45.706Z,58.00
2023-05-02T20:16:11.853Z,58.70
2023-05-02T20:18:38.036Z,58.62
2023-05-02T20:21:04.130Z,58.53
2023-05-02T20:23:30.226Z,57.93
2023-05-02T20:25:56.333Z,57.36
2023-05-02T20:28:22.458Z,57.84
2023-05-02T20:30:48.555Z,57.92
2023-05-02T20:33:16.667Z,59.34
2023-05-02T20:35:43.248Z,59.29
2023-05-02T20:38:09.405Z,58.75
2023-05-02T20:40:35.517Z,59.23
2023-05-02T20:43:01.641Z,57.36
2023-05-02T20:45:27.740Z,57.69
2023-05-02T20:47:53.881Z,58.16
2023-05-02T20:50:20.042Z,59.39
2023-05-02T20:52:46.146Z,58.32
2023-05-02T20:55:12.229Z,58.43
2023-05-02T20:57:38.346Z,58.33
2023-05-02T21:00:04.781Z,58.82
2023-05-02T21:02:31.211Z,59.22
2023-05-02T21:04:57.341Z,59.28
2023-05-02T21:07:23.463Z,59.64
2023-05-02T21:09:49.560Z,59.36
2023-05-02T21:12:15.647Z,59.62
2023-05-02T21:14:41.760Z,59.63
2023-05-02T21:17:07.889Z,59.84
2023-05-02T21:19:34.015Z,59.98
2023-05-02T21:22:00.109Z,60.55
2023-05-02T21:24:26.598Z,60.24
2023-05-02T21:26:52.691Z,59.39
2023-05-02T21:29:18.813Z,59.29
2023-05-02T21:31:45.022Z,60.52
2023-05-02T21:34:11.190Z,60.00
2023-05-02T21:36:37.319Z,59.59
2023-05-02T21:39:03.439Z,58.89
2023-05-02T21:41:29.544Z,59.47
2023-05-02T21:43:55.673Z,59.96
2023-05-02T21:46:21.810Z,59.91
2023-05-02T21:48:47.972Z,60.36
2023-05-02T21:51:14.231Z,60.36
2023-05-02T21:53:40.440Z,60.18
2023-05-02T21:56:06.574Z,60.22
2023-05-02T21:58:32.679Z,60.47
2023-05-02T22:00:58.811Z,60.53
2023-05-02T22:03:25.007Z,61.20
2023-05-02T22:05:51.145Z,60.75
2023-05-02T22:08:17.242Z,60.35
2023-05-02T22:10:43.368Z,59.29
2023-05-02T22:13:09.710Z,60.54
2023-05-02T22:15:35.901Z,60.98
2023-05-02T22:18:02.030Z,60.87
2023-05-02T22:20:28.117Z,60.78
2023-05-02T22:22:54.235Z,61.18
2023-05-02T22:25:20.327Z,60.77
2023-05-02T22:27:46.438Z,60.59
2023-05-02T22:30:12.575Z,60.03
2023-05-02T22:32:38.710Z,60.30
2023-05-02T22:35:04.844Z,61.05
2023-05-02T22:37:30.973Z,61.31
2023-05-02T22:39:57.082Z,61.43
2023-05-02T22:42:23.201Z,60.77
2023-05-02T22:44:54.005Z,60.64
2023-05-02T22:47:20.812Z,60.21
2023-05-02T22:49:46.945Z,60.50
2023-05-02T22:52:13.080Z,60.25
2023-05-02T22:54:39.192Z,61.20
2023-05-02T22:57:05.308Z,60.25
2023-05-02T22:59:31.415Z,60.20
2023-05-02T23:01:57.543Z,60.01
2023-05-02T23:04:23.695Z,60.70
2023-05-02T23:06:49.851Z,59.76
2023-05-02T23:09:15.985Z,59.33
2023-05-02T23:11:42.117Z,58.76
2023-05-02T23:14:08.199Z,59.36
2023-05-02T23:16:34.421Z,60.35
2023-05-02T23:19:00.572Z,60.81
2023-05-02T23:21:26.668Z,61.13
2023-05-02T23:23:52.784Z,61.28
2023-05-02T23:26:18.896Z,61.48
2023-05-02T23:28:45.002Z,61.24
2023-05-02T23:31:11.136Z,61.58
2023-05-02T23:33:37.256Z,61.84
2023-05-02T23:36:03.332Z,61.84
2023-05-02T23:38:29.446Z,62.90
2023-05-02T23:40:55.564Z,62.89
2023-05-02T23:43:22.003Z,62.84
2023-05-02T23:45:48.125Z,62.57
2023-05-02T23:48:14.266Z,62.28
2023-05-02T23:50:40.377Z,62.25
2023-05-02T23:53:06.486Z,62.20
2023-05-02T23:55:32.611Z,62.47
2023-05-02T23:57:58.721Z,61.50
